Shenango, Pennsylvania
Current Conditions -  °F | °C
As of 4:53 AM on Sunday 26 Oct 2014 (Local Time) from KGKJ Reporting Station
Clear Clear  
Wind Chill: 43°   Ceiling: Unl
Heat Index: 45°   Visibility: 10mi
Dew Point: 36°   Wind: 5mph
Humidity: 71%   Direction: 280°W
Pressure: 29.77"   Gusts: NA
Location:  41.4051°N, 80.3648°W
Report Text: KGKJ 260853Z AUTO 28004KT 10SM CLR 07/02 A2977 RMK AO2 SLP081 T00720022 51006 TSNO
Loading
Personal Weather Stations






























Interactive Weather Map
Tropical Storm Tracking
New forecast layout! Learn more

10-Day Weather Forecast

Advertisements
Track Severe Weather on mobile